createdAt,value
2023-07-27T00:11:34.851Z,27.89
2023-07-27T00:26:37.074Z,27.66
2023-07-27T00:41:42.974Z,27.60
2023-07-27T00:56:45.266Z,26.76
2023-07-27T01:11:47.174Z,26.73
2023-07-27T01:27:16.070Z,26.65
2023-07-27T01:42:19.536Z,26.44
2023-07-27T01:57:21.516Z,26.15
2023-07-27T02:12:31.414Z,25.94
2023-07-27T02:27:33.382Z,25.96
2023-07-27T02:42:35.420Z,26.32
2023-07-27T02:57:37.482Z,26.33
2023-07-27T03:12:39.401Z,26.94
2023-07-27T03:27:41.472Z,27.31
2023-07-27T03:42:43.703Z,27.60
2023-07-27T03:57:48.207Z,28.23
2023-07-27T04:12:50.189Z,28.74
2023-07-27T04:27:52.769Z,29.62
2023-07-27T04:42:54.997Z,30.11
2023-07-27T04:57:57.019Z,30.71
2023-07-27T05:12:58.796Z,31.03
2023-07-27T05:28:00.775Z,31.40
2023-07-27T05:43:02.803Z,32.04
2023-07-27T05:58:18.585Z,32.22
2023-07-27T06:13:25.808Z,33.00
2023-07-27T06:28:28.736Z,33.07
2023-07-27T06:43:30.765Z,33.49
2023-07-27T06:58:35.693Z,33.99
2023-07-27T07:13:37.578Z,34.21
2023-07-27T07:28:40.927Z,34.80
2023-07-27T07:43:43.051Z,34.89
2023-07-27T07:58:48.426Z,35.27
2023-07-27T08:13:53.861Z,35.57
2023-07-27T08:28:55.829Z,36.40
2023-07-27T08:44:00.122Z,37.21
2023-07-27T08:59:02.466Z,37.53
2023-07-27T09:14:07.177Z,38.64
2023-07-27T09:29:09.919Z,38.55
2023-07-27T09:44:19.738Z,39.10
2023-07-27T09:59:24.866Z,38.92
2023-07-27T10:14:30.412Z,39.81
2023-07-27T10:29:33.018Z,40.23
2023-07-27T10:44:43.802Z,40.42
2023-07-27T10:59:50.653Z,41.69
2023-07-27T11:14:53.443Z,41.14
2023-07-27T11:29:55.354Z,40.30
2023-07-27T11:45:01.348Z,40.10
2023-07-27T12:00:16.562Z,40.40
2023-07-27T12:15:32.617Z,39.62
2023-07-27T12:30:34.849Z,39.01
2023-07-27T12:45:38.658Z,39.02
2023-07-27T13:00:40.786Z,38.58
2023-07-27T13:15:42.752Z,38.61
2023-07-27T13:30:50.456Z,38.42
2023-07-27T13:45:53.009Z,37.96
2023-07-27T14:00:57.814Z,37.62
2023-07-27T14:16:00.063Z,36.99
2023-07-27T14:31:13.145Z,36.81
2023-07-27T14:46:16.482Z,36.60
2023-07-27T15:01:19.796Z,36.64
2023-07-27T15:16:21.899Z,36.14
2023-07-27T15:31:23.902Z,35.73
2023-07-27T15:46:26.024Z,35.52
2023-07-27T16:01:35.757Z,35.24
2023-07-27T16:16:42.635Z,34.54
2023-07-27T16:31:46.300Z,34.22
2023-07-27T16:46:50.390Z,33.99
2023-07-27T17:01:53.118Z,33.60
2023-07-27T17:16:57.286Z,33.50
2023-07-27T17:32:02.021Z,33.43
2023-07-27T17:47:04.361Z,33.33
2023-07-27T18:02:06.481Z,33.28
2023-07-27T18:17:08.971Z,33.08
2023-07-27T18:32:12.260Z,32.36
2023-07-27T18:47:14.348Z,31.06
2023-07-27T19:02:16.275Z,30.29
2023-07-27T19:17:22.944Z,29.83
2023-07-27T19:32:25.605Z,29.57
2023-07-27T19:47:28.041Z,29.31
2023-07-27T20:02:30.161Z,29.19
2023-07-27T20:17:32.487Z,29.14
2023-07-27T20:32:34.554Z,28.97
2023-07-27T20:47:37.457Z,29.14
2023-07-27T21:02:39.685Z,26.51
2023-07-27T21:17:42.759Z,24.56
2023-07-27T21:32:44.763Z,24.13
2023-07-27T21:47:46.884Z,23.94
2023-07-27T22:02:48.904Z,24.68
2023-07-27T22:17:51.002Z,24.80
2023-07-27T22:32:54.067Z,24.52
2023-07-27T22:47:56.131Z,24.54
2023-07-27T23:02:58.514Z,24.89
2023-07-27T23:18:00.520Z,25.12
2023-07-27T23:33:02.796Z,25.23
2023-07-27T23:48:05.158Z,25.28
